createdAt,value
2022-12-28T00:04:25.607Z,101800
2022-12-28T00:09:25.725Z,101780
2022-12-28T00:14:25.607Z,101780
2022-12-28T00:19:25.813Z,101760
2022-12-28T00:24:25.632Z,101740
2022-12-28T00:29:25.621Z,101730
2022-12-28T00:34:25.656Z,101720
2022-12-28T00:39:25.745Z,101710
2022-12-28T00:44:25.632Z,101700
2022-12-28T00:49:25.839Z,101690
2022-12-28T00:54:25.632Z,101660
2022-12-28T00:59:25.628Z,101670
2022-12-28T01:04:25.639Z,101660
2022-12-28T01:09:25.762Z,101650
2022-12-28T01:14:25.651Z,101630
2022-12-28T01:19:25.855Z,101610
2022-12-28T01:24:25.642Z,101600
2022-12-28T01:29:25.653Z,101580
2022-12-28T01:34:25.659Z,101570
2022-12-28T01:39:25.771Z,101570
2022-12-28T01:44:25.666Z,101560
2022-12-28T01:49:25.864Z,101560
2022-12-28T01:54:25.672Z,101550
2022-12-28T01:59:25.669Z,101560
2022-12-28T02:04:25.669Z,101540
2022-12-28T02:09:25.783Z,101520
2022-12-28T02:14:25.684Z,101490
2022-12-28T02:19:25.889Z,101490
2022-12-28T02:24:25.685Z,101480
2022-12-28T02:29:25.705Z,101480
2022-12-28T02:34:25.702Z,101480
2022-12-28T02:39:25.812Z,101460
2022-12-28T02:44:25.698Z,101460
2022-12-28T02:49:25.894Z,101440
2022-12-28T02:54:25.692Z,101440
2022-12-28T02:59:25.704Z,101430
2022-12-28T03:04:25.708Z,101420
2022-12-28T03:09:25.769Z,101400
2022-12-28T03:14:25.725Z,101400
2022-12-28T03:19:25.764Z,101400
2022-12-28T03:24:25.711Z,101400
2022-12-28T03:29:25.716Z,101400
2022-12-28T03:34:25.724Z,101380
2022-12-28T03:39:25.835Z,101380
2022-12-28T03:44:25.732Z,101380
2022-12-28T03:49:25.789Z,101370
2022-12-28T03:54:25.728Z,101360
2022-12-28T03:59:25.733Z,101370
2022-12-28T04:04:25.737Z,101360
2022-12-28T04:09:25.869Z,101360
2022-12-28T04:14:25.747Z,101360
2022-12-28T04:19:25.805Z,101340
2022-12-28T04:24:25.748Z,101330
2022-12-28T04:29:25.746Z,101330
2022-12-28T04:34:25.748Z,101330
2022-12-28T04:39:25.818Z,101320
2022-12-28T04:44:25.754Z,101320
2022-12-28T04:49:25.827Z,101310
2022-12-28T04:54:25.773Z,101310
2022-12-28T04:59:25.773Z,101300
2022-12-28T05:04:25.769Z,101290
2022-12-28T05:09:25.835Z,101290
2022-12-28T05:14:25.774Z,101280
2022-12-28T05:19:25.826Z,101280
2022-12-28T05:24:25.781Z,101280
2022-12-28T05:29:25.779Z,101280
2022-12-28T05:34:25.789Z,101280
2022-12-28T05:39:25.898Z,101280
2022-12-28T05:44:25.793Z,101280
2022-12-28T05:49:25.980Z,101280
2022-12-28T05:54:25.804Z,101270
2022-12-28T05:59:25.800Z,101260
2022-12-28T06:04:25.815Z,101250
2022-12-28T06:09:25.875Z,101260
2022-12-28T06:14:25.814Z,101260
2022-12-28T06:19:26.000Z,101260
2022-12-28T06:24:25.821Z,101260
2022-12-28T06:29:25.823Z,101260
2022-12-28T06:34:25.822Z,101260
2022-12-28T06:39:25.890Z,101260
2022-12-28T06:44:25.835Z,101240
2022-12-28T06:49:26.030Z,101250
2022-12-28T06:54:25.828Z,101240
2022-12-28T06:59:25.837Z,101250
2022-12-28T07:04:25.843Z,101240
2022-12-28T07:09:25.953Z,101240
2022-12-28T07:14:25.843Z,101240
2022-12-28T07:19:26.051Z,101240
2022-12-28T07:24:25.852Z,101230
2022-12-28T07:29:25.853Z,101250
2022-12-28T07:34:25.856Z,101230
2022-12-28T07:39:25.968Z,101240
2022-12-28T07:44:29.415Z,101230
2022-12-28T07:49:26.099Z,101240
2022-12-28T07:54:25.864Z,101240
2022-12-28T07:59:30.817Z,101230
2022-12-28T08:04:25.873Z,101230
2022-12-28T08:09:25.997Z,101240
2022-12-28T08:14:25.880Z,101230
2022-12-28T08:19:26.088Z,101230
2022-12-28T08:24:25.886Z,101230
2022-12-28T08:29:25.884Z,101230
2022-12-28T08:34:25.896Z,101230
2022-12-28T08:39:26.020Z,101240
2022-12-28T08:44:25.907Z,101240
2022-12-28T08:49:25.955Z,101230
2022-12-28T08:54:25.916Z,101240
2022-12-28T08:59:25.908Z,101240
2022-12-28T09:04:25.914Z,101240
2022-12-28T09:09:26.023Z,101240
2022-12-28T09:14:25.901Z,101240
2022-12-28T09:19:25.970Z,101240
2022-12-28T09:24:25.927Z,101240
2022-12-28T09:29:25.920Z,101240
2022-12-28T09:34:37.837Z,101240
2022-12-28T09:39:26.096Z,101230
2022-12-28T09:44:25.933Z,101240
2022-12-28T09:49:25.987Z,101230
2022-12-28T09:54:25.939Z,101240
2022-12-28T09:59:25.940Z,101220
2022-12-28T10:04:25.947Z,101230
2022-12-28T10:09:26.056Z,101220
2022-12-28T10:14:25.941Z,101220
2022-12-28T10:19:26.152Z,101220
2022-12-28T10:24:33.018Z,101220
2022-12-28T10:29:25.957Z,101220
2022-12-28T10:34:25.955Z,101210
2022-12-28T10:39:26.029Z,101210
2022-12-28T10:44:40.456Z,101200
2022-12-28T10:49:25.959Z,101200
2022-12-28T10:54:28.230Z,101190
2022-12-28T10:59:25.971Z,101180
2022-12-28T11:04:25.980Z,101180
2022-12-28T11:09:26.048Z,101170
2022-12-28T11:14:25.973Z,101160
2022-12-28T11:19:25.998Z,101150
2022-12-28T11:24:26.037Z,101150
2022-12-28T11:29:25.986Z,101150
2022-12-28T11:34:25.996Z,101130
2022-12-28T11:39:26.087Z,101130
2022-12-28T11:44:25.994Z,101140
2022-12-28T11:49:25.996Z,101120
2022-12-28T11:54:26.049Z,101120
2022-12-28T11:59:26.007Z,101110
2022-12-28T12:04:25.999Z,101110
2022-12-28T12:09:26.071Z,101110
2022-12-28T12:14:26.020Z,101100
2022-12-28T12:19:26.017Z,101090
2022-12-28T12:24:26.077Z,101090
2022-12-28T12:29:26.017Z,101090
2022-12-28T12:34:26.020Z,101090
2022-12-28T12:39:26.139Z,101090
2022-12-28T12:44:26.025Z,101080
2022-12-28T12:49:26.035Z,101060
2022-12-28T12:54:26.084Z,101060
2022-12-28T12:59:26.034Z,101050
2022-12-28T13:04:26.041Z,101040
2022-12-28T13:09:26.048Z,101030
2022-12-28T13:14:26.167Z,101030
2022-12-28T13:19:26.055Z,101020
2022-12-28T13:24:26.113Z,101010
2022-12-28T13:29:26.070Z,101010
2022-12-28T13:34:26.075Z,101000
2022-12-28T13:39:26.081Z,100980
2022-12-28T13:44:26.071Z,100970
2022-12-28T13:49:26.190Z,100940
2022-12-28T13:54:26.124Z,100940
2022-12-28T13:59:26.076Z,100950
2022-12-28T14:04:51.660Z,100930
2022-12-28T14:09:26.079Z,100920
2022-12-28T14:14:26.078Z,100910
2022-12-28T14:19:26.079Z,100910
2022-12-28T14:24:26.217Z,100900
2022-12-28T14:29:26.142Z,100890
2022-12-28T14:34:26.104Z,100880
2022-12-28T14:39:26.099Z,100870
2022-12-28T14:44:26.099Z,100880
2022-12-28T14:49:26.100Z,100860
2022-12-28T14:54:26.238Z,100840
2022-12-28T14:59:26.104Z,100830
2022-12-28T15:04:26.166Z,100830
2022-12-28T15:09:26.110Z,100830
2022-12-28T15:14:26.112Z,100810
2022-12-28T15:19:26.121Z,100790
2022-12-28T15:24:31.906Z,100790
2022-12-28T15:29:39.960Z,100790
2022-12-28T15:34:26.181Z,100780
2022-12-28T15:39:26.142Z,100770
2022-12-28T15:44:26.126Z,100750
2022-12-28T15:49:26.143Z,100750
2022-12-28T15:54:26.258Z,100750
2022-12-28T15:59:26.157Z,100730
2022-12-28T16:04:26.197Z,100730
2022-12-28T16:09:26.141Z,100730
2022-12-28T16:14:26.154Z,100710
2022-12-28T16:19:26.157Z,100700
2022-12-28T16:24:26.285Z,100690
2022-12-28T16:29:26.159Z,100680
2022-12-28T16:34:26.217Z,100680
2022-12-28T16:39:26.187Z,100680
2022-12-28T16:44:26.180Z,100670
2022-12-28T16:49:26.168Z,100660
2022-12-28T16:54:26.228Z,100660
2022-12-28T16:59:26.183Z,100650
2022-12-28T17:04:26.251Z,100620
2022-12-28T17:09:26.183Z,100640
2022-12-28T17:14:36.268Z,100620
2022-12-28T17:19:26.183Z,100610
2022-12-28T17:24:26.305Z,100590
2022-12-28T17:29:26.189Z,100580
2022-12-28T17:34:26.253Z,100570
2022-12-28T17:39:26.200Z,100560
2022-12-28T17:44:26.197Z,100540
2022-12-28T17:49:26.211Z,100540
2022-12-28T17:54:26.322Z,100520
2022-12-28T17:59:26.219Z,100510
2022-12-28T18:04:26.268Z,100510
2022-12-28T18:09:28.097Z,100500
2022-12-28T18:14:26.241Z,100490
2022-12-28T18:19:26.223Z,100490
2022-12-28T18:24:26.345Z,100480
2022-12-28T18:29:26.274Z,100460
2022-12-28T18:34:26.277Z,100460
2022-12-28T18:39:26.233Z,100450
2022-12-28T18:44:26.258Z,100440
2022-12-28T18:49:26.237Z,100450
2022-12-28T18:54:26.364Z,100450
2022-12-28T18:59:26.238Z,100430
2022-12-28T19:04:26.423Z,100420
2022-12-28T19:09:26.255Z,100430
2022-12-28T19:14:26.263Z,100420
2022-12-28T19:19:26.250Z,100420
2022-12-28T19:24:26.384Z,100430
2022-12-28T19:29:26.264Z,100410
2022-12-28T19:34:26.332Z,100410
2022-12-28T19:39:26.273Z,100390
2022-12-28T19:44:26.266Z,100400
2022-12-28T19:49:26.279Z,100400
2022-12-28T19:54:26.397Z,100390
2022-12-28T19:59:26.311Z,100390
2022-12-28T20:04:26.332Z,100370
2022-12-28T20:09:26.285Z,100390
2022-12-28T20:14:26.289Z,100370
2022-12-28T20:19:26.290Z,100380
2022-12-28T20:24:26.353Z,100380
2022-12-28T20:29:26.290Z,100370
2022-12-28T20:34:26.354Z,100370
2022-12-28T20:39:26.305Z,100370
2022-12-28T20:44:26.400Z,100350
2022-12-28T20:49:26.313Z,100370
2022-12-28T20:54:26.373Z,100370
2022-12-28T20:59:26.391Z,100360
2022-12-28T21:04:26.414Z,100350
2022-12-28T21:09:26.328Z,100340
2022-12-28T21:14:26.315Z,100330
2022-12-28T21:19:26.327Z,100330
2022-12-28T21:24:26.444Z,100320
2022-12-28T21:29:26.369Z,100320
2022-12-28T21:34:26.385Z,100320
2022-12-28T21:39:26.351Z,100320
2022-12-28T21:44:26.339Z,100320
2022-12-28T21:49:26.353Z,100310
2022-12-28T21:54:26.456Z,100300
2022-12-28T21:59:26.358Z,100290
2022-12-28T22:04:26.403Z,100290
2022-12-28T22:09:26.342Z,100290
2022-12-28T22:14:26.349Z,100280
2022-12-28T22:19:26.360Z,100270
2022-12-28T22:24:26.477Z,100270
2022-12-28T22:29:26.365Z,100250
2022-12-28T22:34:26.426Z,100260
2022-12-28T22:39:26.363Z,100250
2022-12-28T22:44:26.363Z,100240
2022-12-28T22:49:26.387Z,100250
2022-12-28T22:54:26.464Z,100230
2022-12-28T22:59:26.399Z,100220
2022-12-28T23:04:26.434Z,100220
2022-12-28T23:09:26.405Z,100220
2022-12-28T23:14:26.395Z,100220
2022-12-28T23:19:26.392Z,100240
2022-12-28T23:24:26.500Z,100220
2022-12-28T23:29:30.549Z,100220
2022-12-28T23:34:26.457Z,100210
2022-12-28T23:39:26.408Z,100210
2022-12-28T23:44:26.441Z,100210
2022-12-28T23:49:26.416Z,100190
2022-12-28T23:54:26.522Z,100180
2022-12-28T23:59:26.403Z,100160
